Flight Track Log - Related Links

Times and Time Zones

All times are in EDT time to prevent confusion due to time zone crossing. See the VNR160 flight status page for this flight to view local times or setup timezone preferences in your user account.

Time Position Orientation Groundspeed Altitude Reporting Facility
EDT Latitude Longitude Course Direction KTS MPH feet Rate Location/Type
Tue 04:20:41 PM 35.9667 -79.9339 202° Southwest 214 246 6,100  Level Atlanta Center
Tue 04:21:41 PM 35.9136 -79.9672 207° Southwest 215 247 8,200 1,950 Climbing Atlanta Center
Tue 04:22:41 PM 35.8603 -79.9981 205° Southwest 215 247 10,000 1,400 Climbing Atlanta Center
Tue 04:23:41 PM 35.7942 -80.0142 191° South 220 253 11,000 850 Climbing Atlanta Center
Tue 04:24:00 PM 35.6346 -80.0297 189° South  Level FlightAware Approximate
Tue 04:24:41 PM 35.7256 -80.0228 186° South 258 297 11,700  Level Atlanta Center
Tue 04:25:00 PM 35.5560 -80.0789 211° Southwest  Level FlightAware Approximate
Tue 04:25:41 PM 35.6406 -80.0397 189° South 281 323 12,900  Level Atlanta Center
Tue 04:26:00 PM 35.4717 -80.1142 202° Southwest  Level FlightAware Approximate
Tue 04:26:41 PM 35.5769 -80.0708 202° Southwest 281 323 13,500  Level Atlanta Center
Tue 04:27:41 PM 35.5031 -80.1128 205° Southwest 288 331 14,000 500 Climbing Atlanta Center
Tue 04:28:41 PM 35.4275 -80.1569 205° Southwest 298 343 14,500 500 Climbing Atlanta Center
Tue 04:29:41 PM 35.3517 -80.2014 206° Southwest 298 343 15,000 250 Climbing Atlanta Center
Tue 04:30:41 PM 35.2739 -80.2483 206° Southwest 303 349 15,000  Level Atlanta Center
Tue 04:31:41 PM 35.1836 -80.3006 205° Southwest 319 367 15,000  Level Atlanta Center
Tue 04:32:41 PM 35.1056 -80.3447 205° Southwest 319 367 15,000  Level Atlanta Center
Tue 04:33:41 PM 35.0275 -80.3889 205° Southwest 313 360 15,000 204 Level Atlanta Center
Tue 04:36:07 PM 34.8400 -80.4972 205° Southwest 311 358 15,700 641 Climbing Jacksonville Center
Tue 04:37:07 PM 34.7700 -80.5372 205° Southwest 303 349 17,200 1,600 Climbing Jacksonville Center
Tue 04:38:07 PM 34.7039 -80.5794 208° Southwest 293 337 18,900 1,750 Climbing Jacksonville Center
Tue 04:39:07 PM 34.6378 -80.6164 205° Southwest 275 316 20,700 1,800 Climbing Jacksonville Center
Tue 04:40:07 PM 34.5675 -80.6411 196° South 270 311 22,500 1,600 Climbing Jacksonville Center
Tue 04:41:07 PM 34.4925 -80.6556 189° South 270 311 23,900 750 Climbing Jacksonville Center
Tue 04:42:07 PM 34.4053 -80.6806 193° South 293 337 24,000 50 Climbing Jacksonville Center
Tue 04:43:07 PM 34.2972 -80.7058 191° South 346 398 24,000  Level Jacksonville Center
Tue 04:44:07 PM 34.2142 -80.7231 190° South 353 406 24,000  Level Jacksonville Center
Tue 04:45:08 PM 34.1144 -80.7456 191° South 359 413 24,000  Level Jacksonville Center
Tue 04:46:07 PM 34.0125 -80.7706 191° South 365 420 24,000  Level Jacksonville Center
Tue 04:47:08 PM 33.9025 -80.7983 192° South 370 426 24,000  Level Jacksonville Center
Tue 04:48:07 PM 33.8006 -80.8206 190° South 370 426 24,000  Level Jacksonville Center
Tue 04:49:08 PM 33.7008 -80.8456 192° South 370 426 24,000  Level Jacksonville Center
Tue 04:50:07 PM 33.6011 -80.8678 191° South 370 426 24,000  Level Jacksonville Center
Tue 04:51:08 PM 33.5011 -80.8900 190° South 370 426 24,000  Level Jacksonville Center
Tue 04:52:07 PM 33.3972 -80.9172 192° South 370 426 24,000  Level Jacksonville Center
Tue 04:53:07 PM 33.2975 -80.9392 190° South 370 426 24,000  Level Jacksonville Center
Tue 04:54:07 PM 33.1978 -80.9614 191° South 370 426 24,000  Level Jacksonville Center
Tue 04:55:07 PM 33.0956 -80.9833 190° South 370 426 24,000  Level Jacksonville Center
Tue 04:56:07 PM 32.9958 -81.0078 192° South 370 426 24,000  Level Jacksonville Center
Tue 04:57:08 PM 32.8961 -81.0297 190° South 370 426 24,000  Level Jacksonville Center
Tue 04:58:07 PM 32.7942 -81.0539 191° South 370 426 24,000  Level Jacksonville Center
Tue 04:59:07 PM 32.6964 -81.0758 191° South 370 426 24,000  Level Jacksonville Center
Tue 05:00:08 PM 32.5964 -81.1025 193° South 370 426 24,000  Level Jacksonville Center
Tue 05:01:08 PM 32.5092 -81.1214 190° South 370 426 24,000  Level Jacksonville Center
Tue 05:02:08 PM 32.3944 -81.1433 189° South 382 440 24,000  Level Jacksonville Center
Tue 05:03:08 PM 32.2947 -81.1672 191° South 376 433 24,000  Level Jacksonville Center
Tue 05:04:08 PM 32.1947 -81.1914 192° South 370 426 24,000  Level Jacksonville Center
Tue 05:05:07 PM 32.0969 -81.2128 190° South 370 426 24,000  Level Jacksonville Center
Tue 05:06:08 PM 31.9969 -81.2342 190° South 365 420 24,000  Level Jacksonville Center
Tue 05:07:07 PM 31.8950 -81.2581 191° South 373 429 24,000 -101 Level Jacksonville Center
Tue 05:08:07 PM 31.7950 -81.2817 191° South 365 420 23,800 -694 Descending Jacksonville Center
Tue 05:09:08 PM 31.6931 -81.3031 190° South 375 432 22,600 -1,150 Descending Jacksonville Center
Tue 05:10:07 PM 31.6078 -81.3217 191° South 364 419 21,500 -1,563 Descending Jacksonville Center
Tue 05:11:07 PM 31.5036 -81.3428 190° South 348 400 19,500 -1,835 Descending Jacksonville Center
Tue 05:12:08 PM 31.4161 -81.3639 192° South 353 406 17,800 -1,835 Descending Jacksonville Center
Tue 05:13:08 PM 31.3244 -81.3872 192° South 348 400 15,800 -1,900 Descending Jacksonville Center
Tue 05:14:08 PM 31.2372 -81.4081 192° South 342 394 14,000 -1,871 Descending Jacksonville Center
Tue 05:14:41 PM 31.1850 -81.4186 190° South 299 344 12,900 -1,800 Descending Jacksonville Center
Tue 05:15:08 PM 31.1558 -81.4239 189° South 324 373 12,200 -1,744 Descending Jacksonville Center
Tue 05:16:07 PM 31.0664 -81.4447 191° South 312 359 10,400 -1,160 Descending Jacksonville Center
Tue 05:17:07 PM 30.9933 -81.4506 184° South 306 352 9,900 -446 Descending Jacksonville Center
Tue 05:18:08 PM 30.9100 -81.4786 196° South 293 337 9,500 -1,000 Descending Jacksonville Center
Tue 05:19:07 PM 30.8481 -81.5447 223° Southwest 282 325 7,900 -1,622 Descending Jacksonville Center
Tue 05:19:22 PM 30.8336 -81.5594 221° Southwest 295 339 7,500 -1,475 Descending Jacksonville Center
Tue 05:20:08 PM 30.7944 -81.6036 224° Southwest 293 337 6,400 -1,475 Descending Jacksonville Center
Tue 05:20:23 PM 30.7739 -81.6233 220° Southwest 284 327 6,000 -1,500 Descending Jacksonville Center
Tue 05:21:08 PM 30.7367 -81.6647 224° Southwest 293 337 4,900 -1,574 Descending Jacksonville Center
Tue 05:21:24 PM 30.7158 -81.6867 222° Southwest 275 316 4,400 -1,424 Descending Jacksonville Center
Tue 05:22:07 PM 30.6767 -81.7164 213° Southwest 288 331 3,500 -1,377 Descending Jacksonville Center
Tue 05:22:25 PM 30.6494 -81.7286 201° Southwest 275 316 3,000 -1,200 Descending Jacksonville Center
Tue 05:23:07 PM 30.6081 -81.7461 200° South 276 318 2,300 -1,000 Descending Jacksonville Center
Tue 05:23:25 PM 30.5789 -81.7536 192° South 251 289 2,000 -787 Descending Jacksonville Center
Tue 05:24:08 PM 30.5392 -81.7686 198° South 259 298 1,500 -787 Descending Jacksonville Center
Tue 05:24:26 PM 30.5225 -81.7736 194° South 171 197 1,200 -456 Descending Jacksonville Center
Tue 05:25:27 PM 30.4889 -81.7547 154° Southeast 123 142 900 -393 Descending Jacksonville Center
Tue 05:26:28 PM 30.4886 -81.7186 91° East 125 144 400 -492 Descending Jacksonville Center
Tue 05:28:00 PM 30.4941 -81.6879 101° East  Level Estimated
Tue 05:35:00 PM 30.4941 -81.6879 311° West  Level Estimated

Login

Don't have an account? Register now (free) for customized features, flight alerts, and more!